sensor_id;sensor_type;location;lat;lon;timestamp;pressure;altitude;pressure_sealevel;temperature;humidity
65013;BME280;51715;39.432;-77.518;2023-03-01T00:01:26;99374.58;;;12.12;33.00
65013;BME280;51715;39.432;-77.518;2023-03-01T00:03:55;99383.55;;;12.18;32.84
65013;BME280;51715;39.432;-77.518;2023-03-01T00:06:23;99394.78;;;12.03;32.85
65013;BME280;51715;39.432;-77.518;2023-03-01T00:08:51;99404.55;;;12.16;33.28
65013;BME280;51715;39.432;-77.518;2023-03-01T00:11:23;99404.66;;;11.66;33.91
65013;BME280;51715;39.432;-77.518;2023-03-01T00:13:53;99412.59;;;11.95;33.47
65013;BME280;51715;39.432;-77.518;2023-03-01T00:16:23;99418.62;;;11.62;33.45
65013;BME280;51715;39.432;-77.518;2023-03-01T00:18:55;99418.18;;;11.67;33.35
65013;BME280;51715;39.432;-77.518;2023-03-01T00:21:24;99424.71;;;11.68;33.15
65013;BME280;51715;39.432;-77.518;2023-03-01T00:23:54;99429.12;;;11.90;33.06
65013;BME280;51715;39.432;-77.518;2023-03-01T00:26:24;99430.51;;;11.77;33.40
65013;BME280;51715;39.432;-77.518;2023-03-01T00:28:53;99437.57;;;11.85;33.84
65013;BME280;51715;39.432;-77.518;2023-03-01T00:31:24;99449.69;;;11.72;34.01
65013;BME280;51715;39.432;-77.518;2023-03-01T00:33:54;99451.86;;;11.58;34.00
65013;BME280;51715;39.432;-77.518;2023-03-01T00:36:25;99454.36;;;11.29;33.95
65013;BME280;51715;39.432;-77.518;2023-03-01T00:38:53;99456.46;;;11.26;34.31
65013;BME280;51715;39.432;-77.518;2023-03-01T00:41:23;99455.61;;;11.13;34.32
65013;BME280;51715;39.432;-77.518;2023-03-01T00:43:51;99463.26;;;10.93;34.43
65013;BME280;51715;39.432;-77.518;2023-03-01T00:46:21;99473.74;;;11.02;34.64
65013;BME280;51715;39.432;-77.518;2023-03-01T00:48:51;99476.44;;;10.34;34.78
65013;BME280;51715;39.432;-77.518;2023-03-01T00:51:22;99486.68;;;10.35;35.32
65013;BME280;51715;39.432;-77.518;2023-03-01T00:53:53;99491.31;;;10.42;35.19
65013;BME280;51715;39.432;-77.518;2023-03-01T00:56:22;99496.80;;;10.52;35.00
65013;BME280;51715;39.432;-77.518;2023-03-01T00:58:51;99502.34;;;10.23;35.13
65013;BME280;51715;39.432;-77.518;2023-03-01T01:01:21;99500.73;;;10.11;35.62
65013;BME280;51715;39.432;-77.518;2023-03-01T01:03:52;99505.10;;;10.26;34.97
65013;BME280;51715;39.432;-77.518;2023-03-01T01:06:22;99511.99;;;10.57;34.55
65013;BME280;51715;39.432;-77.518;2023-03-01T01:08:54;99522.37;;;10.60;34.41
65013;BME280;51715;39.432;-77.518;2023-03-01T01:11:25;99536.29;;;10.66;34.15
65013;BME280;51715;39.432;-77.518;2023-03-01T01:13:55;99547.24;;;10.75;34.36
65013;BME280;51715;39.432;-77.518;2023-03-01T01:16:26;99552.50;;;10.87;34.68
65013;BME280;51715;39.432;-77.518;2023-03-01T01:18:56;99561.52;;;10.85;34.51
65013;BME280;51715;39.432;-77.518;2023-03-01T01:21:25;99567.28;;;10.24;35.06
65013;BME280;51715;39.432;-77.518;2023-03-01T01:23:53;99569.59;;;10.36;34.86
65013;BME280;51715;39.432;-77.518;2023-03-01T01:26:24;99569.84;;;10.81;34.76
65013;BME280;51715;39.432;-77.518;2023-03-01T01:28:53;99566.07;;;10.72;34.83
65013;BME280;51715;39.432;-77.518;2023-03-01T01:31:23;99570.14;;;10.46;34.65
65013;BME280;51715;39.432;-77.518;2023-03-01T01:33:52;99566.84;;;10.65;34.63
65013;BME280;51715;39.432;-77.518;2023-03-01T01:36:21;99562.93;;;10.63;34.63
65013;BME280;51715;39.432;-77.518;2023-03-01T01:38:50;99560.44;;;10.14;34.47
65013;BME280;51715;39.432;-77.518;2023-03-01T01:41:19;99560.98;;;9.71;35.79
65013;BME280;51715;39.432;-77.518;2023-03-01T01:44:09;99567.16;;;9.43;36.46
65013;BME280;51715;39.432;-77.518;2023-03-01T01:46:40;99568.88;;;10.07;35.67
65013;BME280;51715;39.432;-77.518;2023-03-01T01:49:15;99574.86;;;9.78;35.53
65013;BME280;51715;39.432;-77.518;2023-03-01T01:51:48;99577.02;;;9.58;35.70
65013;BME280;51715;39.432;-77.518;2023-03-01T01:54:21;99581.36;;;10.16;35.27
65013;BME280;51715;39.432;-77.518;2023-03-01T01:56:55;99584.16;;;10.18;35.07
65013;BME280;51715;39.432;-77.518;2023-03-01T01:59:28;99578.91;;;10.27;35.08
65013;BME280;51715;39.432;-77.518;2023-03-01T02:02:00;99588.83;;;10.31;35.64
65013;BME280;51715;39.432;-77.518;2023-03-01T02:04:31;99598.36;;;10.15;35.74
65013;BME280;51715;39.432;-77.518;2023-03-01T02:07:06;99602.19;;;9.96;35.91
65013;BME280;51715;39.432;-77.518;2023-03-01T02:09:36;99611.38;;;9.83;36.02
65013;BME280;51715;39.432;-77.518;2023-03-01T02:12:05;99614.60;;;9.13;37.38
65013;BME280;51715;39.432;-77.518;2023-03-01T02:14:34;99612.55;;;9.14;37.71
65013;BME280;51715;39.432;-77.518;2023-03-01T02:17:03;99620.23;;;9.29;37.09
65013;BME280;51715;39.432;-77.518;2023-03-01T02:19:40;99621.32;;;8.10;38.72
65013;BME280;51715;39.432;-77.518;2023-03-01T02:22:22;99627.65;;;7.23;40.90
65013;BME280;51715;39.432;-77.518;2023-03-01T02:25:07;99630.99;;;7.51;41.08
65013;BME280;51715;39.432;-77.518;2023-03-01T02:27:45;99641.80;;;7.52;41.28
65013;BME280;51715;39.432;-77.518;2023-03-01T02:30:16;99649.81;;;7.50;41.00
65013;BME280;51715;39.432;-77.518;2023-03-01T02:32:46;99652.17;;;7.65;40.73
65013;BME280;51715;39.432;-77.518;2023-03-01T02:35:18;99659.61;;;7.47;40.78
65013;BME280;51715;39.432;-77.518;2023-03-01T02:37:48;99662.03;;;7.47;40.05
65013;BME280;51715;39.432;-77.518;2023-03-01T02:40:20;99664.65;;;8.42;39.12
65013;BME280;51715;39.432;-77.518;2023-03-01T02:42:53;99665.09;;;8.34;38.80
65013;BME280;51715;39.432;-77.518;2023-03-01T02:45:22;99661.97;;;8.30;39.14
65013;BME280;51715;39.432;-77.518;2023-03-01T02:47:53;99657.49;;;8.34;38.79
65013;BME280;51715;39.432;-77.518;2023-03-01T02:50:43;99650.56;;;8.75;38.47
65013;BME280;51715;39.432;-77.518;2023-03-01T02:53:19;99651.91;;;8.33;38.17
65013;BME280;51715;39.432;-77.518;2023-03-01T02:55:50;99645.83;;;8.51;38.47
65013;BME280;51715;39.432;-77.518;2023-03-01T02:58:18;99653.46;;;8.49;38.43
65013;BME280;51715;39.432;-77.518;2023-03-01T03:00:48;99658.80;;;8.18;38.35
65013;BME280;51715;39.432;-77.518;2023-03-01T03:03:17;99662.35;;;8.13;38.48
65013;BME280;51715;39.432;-77.518;2023-03-01T03:05:47;99659.36;;;8.19;38.28
65013;BME280;51715;39.432;-77.518;2023-03-01T03:08:16;99655.93;;;8.21;38.03
65013;BME280;51715;39.432;-77.518;2023-03-01T03:10:45;99659.62;;;8.23;38.02
65013;BME280;51715;39.432;-77.518;2023-03-01T03:13:14;99664.57;;;8.43;37.91
65013;BME280;51715;39.432;-77.518;2023-03-01T03:15:44;99669.82;;;8.65;37.88
65013;BME280;51715;39.432;-77.518;2023-03-01T03:18:14;99672.04;;;8.28;37.83
65013;BME280;51715;39.432;-77.518;2023-03-01T03:20:44;99670.40;;;8.41;37.87
65013;BME280;51715;39.432;-77.518;2023-03-01T03:23:14;99671.44;;;7.84;37.86
65013;BME280;51715;39.432;-77.518;2023-03-01T03:25:42;99672.80;;;7.86;37.99
65013;BME280;51715;39.432;-77.518;2023-03-01T03:28:11;99677.87;;;8.26;38.23
65013;BME280;51715;39.432;-77.518;2023-03-01T03:30:41;99677.19;;;8.14;38.35
65013;BME280;51715;39.432;-77.518;2023-03-01T03:33:10;99674.47;;;8.01;38.55
65013;BME280;51715;39.432;-77.518;2023-03-01T03:35:41;99678.57;;;7.94;38.61
65013;BME280;51715;39.432;-77.518;2023-03-01T03:38:11;99676.35;;;7.89;38.52
65013;BME280;51715;39.432;-77.518;2023-03-01T03:40:43;99676.45;;;7.87;38.55
65013;BME280;51715;39.432;-77.518;2023-03-01T03:43:13;99677.92;;;7.69;38.37
65013;BME280;51715;39.432;-77.518;2023-03-01T03:45:43;99681.51;;;7.31;38.28
65013;BME280;51715;39.432;-77.518;2023-03-01T03:48:12;99681.29;;;7.55;38.49
65013;BME280;51715;39.432;-77.518;2023-03-01T03:50:41;99678.78;;;7.32;38.43
65013;BME280;51715;39.432;-77.518;2023-03-01T03:53:14;99678.00;;;7.49;38.07
65013;BME280;51715;39.432;-77.518;2023-03-01T03:55:43;99683.12;;;7.06;38.60
65013;BME280;51715;39.432;-77.518;2023-03-01T03:58:12;99686.50;;;7.22;38.74
65013;BME280;51715;39.432;-77.518;2023-03-01T04:00:42;99690.73;;;7.05;39.78
65013;BME280;51715;39.432;-77.518;2023-03-01T04:03:14;99689.53;;;6.79;40.17
65013;BME280;51715;39.432;-77.518;2023-03-01T04:05:44;99685.46;;;6.70;40.62
65013;BME280;51715;39.432;-77.518;2023-03-01T04:08:13;99686.91;;;6.72;40.44
65013;BME280;51715;39.432;-77.518;2023-03-01T04:10:43;99686.82;;;6.80;40.16
65013;BME280;51715;39.432;-77.518;2023-03-01T04:13:14;99688.74;;;6.60;40.15
65013;BME280;51715;39.432;-77.518;2023-03-01T04:15:43;99684.30;;;6.87;40.24
65013;BME280;51715;39.432;-77.518;2023-03-01T04:18:14;99682.37;;;6.55;41.35
65013;BME280;51715;39.432;-77.518;2023-03-01T04:20:43;99683.49;;;6.81;40.88
65013;BME280;51715;39.432;-77.518;2023-03-01T04:23:14;99679.77;;;6.82;40.33
65013;BME280;51715;39.432;-77.518;2023-03-01T04:25:46;99676.65;;;7.02;39.78
65013;BME280;51715;39.432;-77.518;2023-03-01T04:28:15;99679.92;;;7.12;39.46
65013;BME280;51715;39.432;-77.518;2023-03-01T04:30:43;99685.28;;;7.13;39.72
65013;BME280;51715;39.432;-77.518;2023-03-01T04:33:12;99688.20;;;7.13;39.94
65013;BME280;51715;39.432;-77.518;2023-03-01T04:35:40;99689.78;;;7.10;40.29
65013;BME280;51715;39.432;-77.518;2023-03-01T04:38:08;99682.13;;;6.98;40.04
65013;BME280;51715;39.432;-77.518;2023-03-01T04:40:38;99678.92;;;7.16;40.28
65013;BME280;51715;39.432;-77.518;2023-03-01T04:43:09;99669.47;;;6.85;40.11
65013;BME280;51715;39.432;-77.518;2023-03-01T04:45:37;99659.47;;;7.26;40.16
65013;BME280;51715;39.432;-77.518;2023-03-01T04:48:06;99652.05;;;6.96;40.30
65013;BME280;51715;39.432;-77.518;2023-03-01T04:50:35;99653.45;;;7.09;39.98
65013;BME280;51715;39.432;-77.518;2023-03-01T04:53:04;99658.45;;;6.31;41.38
65013;BME280;51715;39.432;-77.518;2023-03-01T04:55:34;99668.81;;;6.88;41.33
65013;BME280;51715;39.432;-77.518;2023-03-01T04:58:04;99670.38;;;6.74;41.34
65013;BME280;51715;39.432;-77.518;2023-03-01T05:04:04;99681.08;;;6.41;40.75
65013;BME280;51715;39.432;-77.518;2023-03-01T05:06:33;99687.56;;;6.82;40.28
65013;BME280;51715;39.432;-77.518;2023-03-01T05:09:02;99690.33;;;6.33;39.84
65013;BME280;51715;39.432;-77.518;2023-03-01T05:11:30;99689.60;;;7.86;38.58
65013;BME280;51715;39.432;-77.518;2023-03-01T05:13:58;99690.46;;;7.99;37.91
65013;BME280;51715;39.432;-77.518;2023-03-01T05:16:27;99685.58;;;7.71;38.56
65013;BME280;51715;39.432;-77.518;2023-03-01T05:18:55;99692.08;;;8.17;38.33
65013;BME280;51715;39.432;-77.518;2023-03-01T05:21:24;99698.46;;;7.97;38.08
65013;BME280;51715;39.432;-77.518;2023-03-01T05:23:53;99706.02;;;7.79;39.04
65013;BME280;51715;39.432;-77.518;2023-03-01T05:26:21;99702.97;;;7.71;38.04
65013;BME280;51715;39.432;-77.518;2023-03-01T05:28:49;99699.74;;;8.02;37.38
65013;BME280;51715;39.432;-77.518;2023-03-01T05:31:17;99703.26;;;8.28;37.73
65013;BME280;51715;39.432;-77.518;2023-03-01T05:33:46;99703.56;;;7.98;37.69
65013;BME280;51715;39.432;-77.518;2023-03-01T05:36:14;99703.32;;;8.27;37.45
65013;BME280;51715;39.432;-77.518;2023-03-01T05:38:42;99699.38;;;8.18;37.13
65013;BME280;51715;39.432;-77.518;2023-03-01T05:41:14;99696.34;;;7.76;37.56
65013;BME280;51715;39.432;-77.518;2023-03-01T05:43:43;99698.13;;;7.27;38.63
65013;BME280;51715;39.432;-77.518;2023-03-01T05:46:12;99701.82;;;6.68;39.63
65013;BME280;51715;39.432;-77.518;2023-03-01T05:48:40;99694.95;;;6.64;39.27
65013;BME280;51715;39.432;-77.518;2023-03-01T05:51:08;99687.68;;;6.74;39.03
65013;BME280;51715;39.432;-77.518;2023-03-01T05:53:37;99687.63;;;6.34;39.65
65013;BME280;51715;39.432;-77.518;2023-03-01T05:56:05;99691.11;;;6.10;40.36
65013;BME280;51715;39.432;-77.518;2023-03-01T05:58:34;99689.01;;;6.10;40.89
65013;BME280;51715;39.432;-77.518;2023-03-01T06:01:03;99688.77;;;5.72;41.41
65013;BME280;51715;39.432;-77.518;2023-03-01T06:03:31;99689.77;;;6.13;41.20
65013;BME280;51715;39.432;-77.518;2023-03-01T06:05:59;99687.44;;;5.77;40.72
65013;BME280;51715;39.432;-77.518;2023-03-01T06:08:28;99682.54;;;5.90;40.31
65013;BME280;51715;39.432;-77.518;2023-03-01T06:10:56;99678.76;;;5.99;40.01
65013;BME280;51715;39.432;-77.518;2023-03-01T06:13:25;99672.41;;;5.97;39.76
65013;BME280;51715;39.432;-77.518;2023-03-01T06:15:53;99672.81;;;5.93;39.78
65013;BME280;51715;39.432;-77.518;2023-03-01T06:18:21;99664.12;;;5.88;40.40
65013;BME280;51715;39.432;-77.518;2023-03-01T06:20:53;99658.64;;;5.52;41.39
65013;BME280;51715;39.432;-77.518;2023-03-01T06:23:21;99651.03;;;5.78;41.14
65013;BME280;51715;39.432;-77.518;2023-03-01T06:25:50;99654.38;;;5.69;41.38
65013;BME280;51715;39.432;-77.518;2023-03-01T06:28:18;99660.20;;;5.49;41.08
65013;BME280;51715;39.432;-77.518;2023-03-01T06:30:46;99651.35;;;5.36;41.93
65013;BME280;51715;39.432;-77.518;2023-03-01T06:33:14;99646.07;;;5.41;41.60
65013;BME280;51715;39.432;-77.518;2023-03-01T06:35:42;99641.58;;;5.71;41.02
65013;BME280;51715;39.432;-77.518;2023-03-01T06:38:10;99637.69;;;5.33;41.34
65013;BME280;51715;39.432;-77.518;2023-03-01T06:40:38;99631.83;;;4.78;42.38
65013;BME280;51715;39.432;-77.518;2023-03-01T06:43:06;99641.31;;;4.98;43.54
65013;BME280;51715;39.432;-77.518;2023-03-01T06:45:34;99646.45;;;5.48;43.37
65013;BME280;51715;39.432;-77.518;2023-03-01T06:48:03;99651.59;;;5.32;43.65
65013;BME280;51715;39.432;-77.518;2023-03-01T06:50:32;99659.57;;;5.39;41.62
65013;BME280;51715;39.432;-77.518;2023-03-01T06:53:00;99673.43;;;5.90;40.69
65013;BME280;51715;39.432;-77.518;2023-03-01T06:55:29;99676.25;;;6.09;40.73
65013;BME280;51715;39.432;-77.518;2023-03-01T06:57:58;99677.30;;;6.17;40.53
65013;BME280;51715;39.432;-77.518;2023-03-01T07:00:27;99678.22;;;6.48;39.62
65013;BME280;51715;39.432;-77.518;2023-03-01T07:02:59;99682.49;;;6.13;40.22
65013;BME280;51715;39.432;-77.518;2023-03-01T07:05:28;99679.32;;;6.30;39.70
65013;BME280;51715;39.432;-77.518;2023-03-01T07:07:56;99675.01;;;5.21;42.49
65013;BME280;51715;39.432;-77.518;2023-03-01T07:10:24;99672.50;;;4.95;42.55
65013;BME280;51715;39.432;-77.518;2023-03-01T07:12:56;99674.71;;;5.38;41.66
65013;BME280;51715;39.432;-77.518;2023-03-01T07:15:26;99672.94;;;5.56;40.62
65013;BME280;51715;39.432;-77.518;2023-03-01T07:17:54;99679.83;;;5.94;40.12
65013;BME280;51715;39.432;-77.518;2023-03-01T07:20:23;99682.86;;;5.24;42.41
65013;BME280;51715;39.432;-77.518;2023-03-01T07:22:52;99683.20;;;5.38;41.36
65013;BME280;51715;39.432;-77.518;2023-03-01T07:25:21;99676.72;;;5.24;41.20
65013;BME280;51715;39.432;-77.518;2023-03-01T07:27:51;99680.40;;;5.53;40.50
65013;BME280;51715;39.432;-77.518;2023-03-01T07:30:20;99676.26;;;5.53;40.11
65013;BME280;51715;39.432;-77.518;2023-03-01T07:32:48;99678.13;;;5.19;40.58
65013;BME280;51715;39.432;-77.518;2023-03-01T07:35:16;99677.03;;;4.62;41.67
65013;BME280;51715;39.432;-77.518;2023-03-01T07:37:44;99672.25;;;4.67;41.64
65013;BME280;51715;39.432;-77.518;2023-03-01T07:40:13;99676.50;;;4.56;41.65
65013;BME280;51715;39.432;-77.518;2023-03-01T07:42:41;99682.98;;;4.92;42.15
65013;BME280;51715;39.432;-77.518;2023-03-01T07:45:10;99686.43;;;4.89;41.59
65013;BME280;51715;39.432;-77.518;2023-03-01T07:47:39;99688.08;;;4.52;41.79
65013;BME280;51715;39.432;-77.518;2023-03-01T07:50:09;99685.31;;;4.93;41.53
65013;BME280;51715;39.432;-77.518;2023-03-01T07:52:37;99682.72;;;4.88;41.26
65013;BME280;51715;39.432;-77.518;2023-03-01T07:55:05;99688.98;;;3.79;42.95
65013;BME280;51715;39.432;-77.518;2023-03-01T07:57:33;99682.97;;;3.61;44.12
65013;BME280;51715;39.432;-77.518;2023-03-01T08:00:02;99677.41;;;4.18;43.28
65013;BME280;51715;39.432;-77.518;2023-03-01T08:02:30;99671.55;;;4.51;42.69
65013;BME280;51715;39.432;-77.518;2023-03-01T08:04:58;99666.63;;;4.36;42.24
65013;BME280;51715;39.432;-77.518;2023-03-01T08:07:26;99666.17;;;4.42;42.11
65013;BME280;51715;39.432;-77.518;2023-03-01T08:09:54;99666.55;;;4.74;41.97
65013;BME280;51715;39.432;-77.518;2023-03-01T08:12:22;99682.61;;;4.34;42.58
65013;BME280;51715;39.432;-77.518;2023-03-01T08:14:51;99701.21;;;4.26;43.58
65013;BME280;51715;39.432;-77.518;2023-03-01T08:17:20;99716.50;;;4.23;43.54
65013;BME280;51715;39.432;-77.518;2023-03-01T08:19:48;99727.05;;;4.26;42.30
65013;BME280;51715;39.432;-77.518;2023-03-01T08:22:16;99732.28;;;4.61;41.92
65013;BME280;51715;39.432;-77.518;2023-03-01T08:24:44;99756.36;;;3.95;44.00
65013;BME280;51715;39.432;-77.518;2023-03-01T08:27:11;99788.60;;;4.51;43.62
65013;BME280;51715;39.432;-77.518;2023-03-01T08:29:40;99809.51;;;4.56;42.61
65013;BME280;51715;39.432;-77.518;2023-03-01T08:32:08;99825.95;;;4.30;43.15
65013;BME280;51715;39.432;-77.518;2023-03-01T08:34:36;99830.31;;;4.33;42.73
65013;BME280;51715;39.432;-77.518;2023-03-01T08:37:04;99834.27;;;4.24;42.39
65013;BME280;51715;39.432;-77.518;2023-03-01T08:39:32;99845.33;;;4.44;42.37
65013;BME280;51715;39.432;-77.518;2023-03-01T08:42:01;99845.83;;;4.41;42.58
65013;BME280;51715;39.432;-77.518;2023-03-01T08:44:30;99845.15;;;4.34;42.35
65013;BME280;51715;39.432;-77.518;2023-03-01T08:46:58;99850.60;;;4.53;43.31
65013;BME280;51715;39.432;-77.518;2023-03-01T08:49:26;99852.22;;;4.71;43.03
65013;BME280;51715;39.432;-77.518;2023-03-01T08:51:54;99850.92;;;4.17;43.66
65013;BME280;51715;39.432;-77.518;2023-03-01T08:54:23;99869.03;;;4.17;43.59
65013;BME280;51715;39.432;-77.518;2023-03-01T08:56:51;99874.45;;;3.46;45.46
65013;BME280;51715;39.432;-77.518;2023-03-01T08:59:19;99879.54;;;3.41;45.61
65013;BME280;51715;39.432;-77.518;2023-03-01T09:01:47;99883.23;;;3.59;45.12
65013;BME280;51715;39.432;-77.518;2023-03-01T09:04:15;99876.04;;;4.14;43.68
65013;BME280;51715;39.432;-77.518;2023-03-01T09:06:43;99868.73;;;4.41;42.85
65013;BME280;51715;39.432;-77.518;2023-03-01T09:09:15;99860.48;;;4.33;43.10
65013;BME280;51715;39.432;-77.518;2023-03-01T09:11:43;99858.60;;;4.06;43.09
65013;BME280;51715;39.432;-77.518;2023-03-01T09:14:12;99866.20;;;4.51;42.68
65013;BME280;51715;39.432;-77.518;2023-03-01T09:16:40;99869.55;;;4.21;42.54
65013;BME280;51715;39.432;-77.518;2023-03-01T09:19:09;99872.50;;;4.33;42.70
65013;BME280;51715;39.432;-77.518;2023-03-01T09:21:37;99876.32;;;4.42;42.45
65013;BME280;51715;39.432;-77.518;2023-03-01T09:24:06;99876.94;;;4.14;42.53
65013;BME280;51715;39.432;-77.518;2023-03-01T09:26:35;99882.33;;;4.38;42.66
65013;BME280;51715;39.432;-77.518;2023-03-01T09:29:03;99887.10;;;4.49;42.36
65013;BME280;51715;39.432;-77.518;2023-03-01T09:31:31;99888.42;;;4.32;42.06
65013;BME280;51715;39.432;-77.518;2023-03-01T09:33:59;99884.87;;;4.33;41.99
65013;BME280;51715;39.432;-77.518;2023-03-01T09:36:27;99887.38;;;4.27;42.08
65013;BME280;51715;39.432;-77.518;2023-03-01T09:38:57;99885.71;;;4.19;42.16
65013;BME280;51715;39.432;-77.518;2023-03-01T09:41:48;99887.33;;;4.47;42.23
65013;BME280;51715;39.432;-77.518;2023-03-01T09:44:26;99883.72;;;4.00;42.71
65013;BME280;51715;39.432;-77.518;2023-03-01T09:46:56;99885.89;;;3.82;42.80
65013;BME280;51715;39.432;-77.518;2023-03-01T09:49:27;99885.98;;;4.42;42.63
65013;BME280;51715;39.432;-77.518;2023-03-01T09:51:59;99876.20;;;4.45;42.36
65013;BME280;51715;39.432;-77.518;2023-03-01T09:54:28;99874.06;;;4.39;42.47
65013;BME280;51715;39.432;-77.518;2023-03-01T09:57:05;99873.78;;;4.30;42.76
65013;BME280;51715;39.432;-77.518;2023-03-01T09:59:47;99876.38;;;4.14;42.64
65013;BME280;51715;39.432;-77.518;2023-03-01T10:02:26;99890.51;;;4.04;42.85
65013;BME280;51715;39.432;-77.518;2023-03-01T10:05:05;99900.04;;;4.14;42.88
65013;BME280;51715;39.432;-77.518;2023-03-01T10:07:42;99899.47;;;4.16;42.94
65013;BME280;51715;39.432;-77.518;2023-03-01T10:10:21;99901.14;;;4.30;42.75
65013;BME280;51715;39.432;-77.518;2023-03-01T10:12:53;99898.16;;;4.39;42.62
65013;BME280;51715;39.432;-77.518;2023-03-01T10:15:30;99908.21;;;4.05;42.70
65013;BME280;51715;39.432;-77.518;2023-03-01T10:18:04;99914.54;;;4.43;42.47
65013;BME280;51715;39.432;-77.518;2023-03-01T10:20:45;99915.27;;;4.22;42.34
65013;BME280;51715;39.432;-77.518;2023-03-01T10:23:15;99914.65;;;4.29;42.18
65013;BME280;51715;39.432;-77.518;2023-03-01T10:25:52;99922.81;;;4.30;42.24
65013;BME280;51715;39.432;-77.518;2023-03-01T10:28:30;99929.89;;;4.31;42.31
65013;BME280;51715;39.432;-77.518;2023-03-01T10:30:59;99924.71;;;4.29;42.25
65013;BME280;51715;39.432;-77.518;2023-03-01T10:33:31;99936.57;;;4.59;42.17
65013;BME280;51715;39.432;-77.518;2023-03-01T10:36:01;99936.08;;;4.35;41.85
65013;BME280;51715;39.432;-77.518;2023-03-01T10:38:33;99929.98;;;4.39;41.57
65013;BME280;51715;39.432;-77.518;2023-03-01T10:41:14;99928.80;;;4.54;41.49
65013;BME280;51715;39.432;-77.518;2023-03-01T10:43:45;99925.66;;;4.62;41.41
65013;BME280;51715;39.432;-77.518;2023-03-01T10:46:28;99924.77;;;4.40;41.33
65013;BME280;51715;39.432;-77.518;2023-03-01T10:49:18;99927.86;;;4.38;41.31
65013;BME280;51715;39.432;-77.518;2023-03-01T10:51:48;99920.72;;;4.54;41.55
65013;BME280;51715;39.432;-77.518;2023-03-01T10:54:19;99918.25;;;4.27;41.84
65013;BME280;51715;39.432;-77.518;2023-03-01T10:56:49;99910.50;;;4.08;41.86
65013;BME280;51715;39.432;-77.518;2023-03-01T10:59:25;99911.89;;;4.35;41.43
65013;BME280;51715;39.432;-77.518;2023-03-01T11:02:29;99919.36;;;4.36;42.30
65013;BME280;51715;39.432;-77.518;2023-03-01T11:05:01;99917.19;;;4.34;42.36
65013;BME280;51715;39.432;-77.518;2023-03-01T11:07:30;99914.87;;;4.29;42.44
65013;BME280;51715;39.432;-77.518;2023-03-01T11:09:58;99917.03;;;4.22;42.33
65013;BME280;51715;39.432;-77.518;2023-03-01T11:12:27;99912.86;;;4.17;42.36
65013;BME280;51715;39.432;-77.518;2023-03-01T11:14:56;99914.46;;;4.17;42.08
65013;BME280;51715;39.432;-77.518;2023-03-01T11:17:27;99920.25;;;3.92;43.03
65013;BME280;51715;39.432;-77.518;2023-03-01T11:20:13;99924.49;;;3.90;43.46
65013;BME280;51715;39.432;-77.518;2023-03-01T11:22:50;99925.43;;;4.07;43.24
65013;BME280;51715;39.432;-77.518;2023-03-01T11:25:23;99926.98;;;3.97;43.26
65013;BME280;51715;39.432;-77.518;2023-03-01T11:27:52;99934.55;;;4.47;42.96
65013;BME280;51715;39.432;-77.518;2023-03-01T11:30:24;99935.95;;;4.60;43.05
65013;BME280;51715;39.432;-77.518;2023-03-01T11:33:04;99936.16;;;4.46;43.02
65013;BME280;51715;39.432;-77.518;2023-03-01T11:35:35;99934.60;;;4.57;42.96
65013;BME280;51715;39.432;-77.518;2023-03-01T11:38:16;99935.12;;;4.47;43.40
65013;BME280;51715;39.432;-77.518;2023-03-01T11:40:52;99927.08;;;4.78;44.14
65013;BME280;51715;39.432;-77.518;2023-03-01T11:43:29;99928.09;;;5.04;43.91
65013;BME280;51715;39.432;-77.518;2023-03-01T11:46:27;99919.31;;;5.01;44.23
65013;BME280;51715;39.432;-77.518;2023-03-01T11:49:11;99918.12;;;5.14;44.16
65013;BME280;51715;39.432;-77.518;2023-03-01T11:51:52;99919.45;;;5.34;44.23
65013;BME280;51715;39.432;-77.518;2023-03-01T11:54:34;99925.50;;;5.65;44.22
65013;BME280;51715;39.432;-77.518;2023-03-01T11:57:17;99918.72;;;5.77;43.71
65013;BME280;51715;39.432;-77.518;2023-03-01T12:00:00;99920.36;;;5.69;43.52
65013;BME280;51715;39.432;-77.518;2023-03-01T12:03:11;99919.17;;;5.67;43.01
65013;BME280;51715;39.432;-77.518;2023-03-01T12:05:55;99929.00;;;5.75;43.19
65013;BME280;51715;39.432;-77.518;2023-03-01T12:08:32;99935.42;;;5.91;43.52
65013;BME280;51715;39.432;-77.518;2023-03-01T12:11:12;99939.65;;;5.85;43.25
65013;BME280;51715;39.432;-77.518;2023-03-01T12:14:04;99939.33;;;6.21;42.42
65013;BME280;51715;39.432;-77.518;2023-03-01T12:17:57;99942.75;;;5.96;42.97
65013;BME280;51715;39.432;-77.518;2023-03-01T12:20:34;99949.31;;;6.50;42.14
65013;BME280;51715;39.432;-77.518;2023-03-01T12:25:34;99939.70;;;6.89;41.56
65013;BME280;51715;39.432;-77.518;2023-03-01T12:28:24;99948.19;;;6.89;40.88
65013;BME280;51715;39.432;-77.518;2023-03-01T12:31:07;99960.79;;;6.92;40.78
65013;BME280;51715;39.432;-77.518;2023-03-01T12:33:49;99972.16;;;6.75;40.55
65013;BME280;51715;39.432;-77.518;2023-03-01T12:36:34;99977.09;;;6.95;40.64
65013;BME280;51715;39.432;-77.518;2023-03-01T12:39:17;99979.62;;;7.28;40.22
65013;BME280;51715;39.432;-77.518;2023-03-01T12:41:57;99981.68;;;7.67;39.50
65013;BME280;51715;39.432;-77.518;2023-03-01T12:44:38;99985.05;;;8.00;38.90
65013;BME280;51715;39.432;-77.518;2023-03-01T12:47:22;99984.49;;;8.26;37.73
65013;BME280;51715;39.432;-77.518;2023-03-01T12:49:57;99987.30;;;8.30;38.00
65013;BME280;51715;39.432;-77.518;2023-03-01T12:52:35;99983.55;;;8.41;37.63
65013;BME280;51715;39.432;-77.518;2023-03-01T12:55:24;99981.60;;;7.99;37.47
65013;BME280;51715;39.432;-77.518;2023-03-01T12:58:00;99986.22;;;8.12;37.57
65013;BME280;51715;39.432;-77.518;2023-03-01T13:00:40;99982.34;;;8.20;38.27
65013;BME280;51715;39.432;-77.518;2023-03-01T13:03:19;99985.69;;;8.34;38.38
65013;BME280;51715;39.432;-77.518;2023-03-01T13:06:01;99983.38;;;8.17;38.75
65013;BME280;51715;39.432;-77.518;2023-03-01T13:08:39;99984.61;;;8.27;38.42
65013;BME280;51715;39.432;-77.518;2023-03-01T13:11:17;99992.59;;;8.07;39.31
65013;BME280;51715;39.432;-77.518;2023-03-01T13:13:47;100000.01;;;8.81;37.67
65013;BME280;51715;39.432;-77.518;2023-03-01T13:16:40;99993.03;;;8.37;37.91
65013;BME280;51715;39.432;-77.518;2023-03-01T13:19:14;99994.07;;;8.61;38.41